Terminal Aerodrome Forecast
Issued by NWS Grand Forks, ND

Home | Current Version | Previous Version | Text Only | Print | Product List | Glossary On
Versions: 1 2 3 4 5 6 7 8 9 10 11 12 13 14 15 16 17 18 19 20 21
000
FTUS43 KFGF 261732
TAFFAR
TAF
KFAR 261732Z 2618/2718 15008KT P6SM BKN010 OVC015
     FM270000 00000KT P6SM BKN015
     FM270300 VRB03KT P6SM BKN035
     FM271100 00000KT 1/2SM FG BKN030
     FM271400 00000KT 4SM BR BKN035
     FM271600 VRB03KT P6SM SCT045=

USA.gov is the U.S. government's official web portal to all federal, state and local government web resources and services.